Archival Weather

Abadan

Abadan, Iran (OIAA)

Report from: Thursday, September 21, 2023 7:00 AM UTC
Current time: Sunday, February 25, 2024 9:21 PM UTC

Current weather – Weather history – Daily summaries
Weather forecast

Temperature36.0°C (96.8°F)
Heat index33.8°C (92.8°F)
Dew point7.0°C (44.6°F)
Winds 6 kts (3.1 m/s, 6.9 mph) Northwest (310°)
Visibility4.3 mi. (7 km)
Altimeter29.71 in.Hg (1006 mB)
Relative humidity17 %
Density altitude2,768 ft. (844 m)
Flight conditions Marginal Visual Meteorological Conditions
Raw dataOIAA 210700Z 31006KT 7000 NSC 36/07 Q1006
An error has occurred. This application may no longer respond until reloaded. Reload 🗙